createdAt,value
2023-03-17T00:04:14.784Z,6.30
2023-03-17T00:09:14.113Z,6.07
2023-03-17T00:14:11.083Z,5.58
2023-03-17T00:19:13.980Z,5.57
2023-03-17T00:24:14.735Z,5.75
2023-03-17T00:29:12.677Z,5.58
2023-03-17T00:34:11.810Z,5.17
2023-03-17T00:39:16.987Z,5.64
2023-03-17T00:44:14.537Z,5.54
2023-03-17T00:54:14.036Z,4.95
2023-03-17T00:59:19.818Z,5.40
2023-03-17T01:04:17.524Z,5.39
2023-03-17T01:09:18.709Z,5.36
2023-03-17T01:14:16.510Z,5.72
2023-03-17T01:19:13.926Z,5.71
2023-03-17T01:24:10.761Z,5.51
2023-03-17T01:29:08.465Z,5.55
2023-03-17T01:34:05.543Z,5.77
2023-03-17T01:39:04.760Z,5.71
2023-03-17T01:44:01.863Z,5.80
2023-03-17T01:49:17.451Z,5.78
2023-03-17T01:54:17.049Z,5.76
2023-03-17T01:59:19.431Z,5.63
2023-03-17T02:04:18.795Z,5.41
2023-03-17T02:09:16.721Z,5.73
2023-03-17T02:14:14.015Z,5.83
2023-03-17T02:19:11.209Z,5.71
2023-03-17T02:24:22.998Z,5.79
2023-03-17T02:29:21.429Z,5.72
2023-03-17T02:34:18.368Z,5.69
2023-03-17T02:39:17.036Z,5.50
2023-03-17T02:44:14.500Z,5.50
2023-03-17T02:49:14.294Z,5.82
2023-03-17T02:54:11.206Z,6.04
2023-03-17T02:59:08.833Z,6.25
2023-03-17T03:04:06.895Z,6.35
2023-03-17T03:09:04.014Z,6.14
2023-03-17T03:14:00.746Z,6.36
2023-03-17T03:18:57.617Z,6.46
2023-03-17T03:23:55.365Z,6.15
2023-03-17T03:28:52.234Z,6.41
2023-03-17T03:33:49.052Z,6.81
2023-03-17T03:38:48.645Z,6.77
2023-03-17T03:43:46.122Z,6.65
2023-03-17T03:48:43.178Z,6.96
2023-03-17T03:53:40.317Z,6.89
2023-03-17T03:58:37.207Z,7.03
2023-03-17T04:03:34.886Z,6.48
2023-03-17T04:08:32.167Z,7.17
2023-03-17T04:13:29.030Z,7.09
2023-03-17T04:18:25.863Z,7.29
2023-03-17T04:23:23.415Z,7.31
2023-03-17T04:28:21.845Z,7.01
2023-03-17T04:33:19.782Z,6.98
2023-03-17T04:38:16.621Z,7.33
2023-03-17T04:43:14.237Z,7.44
2023-03-17T04:48:11.152Z,7.38
2023-03-17T04:53:08.481Z,7.49
2023-03-17T04:58:06.313Z,7.62
2023-03-17T05:03:09.085Z,7.36
2023-03-17T05:08:13.717Z,7.67
2023-03-17T05:13:10.884Z,7.95
2023-03-17T05:18:08.951Z,7.91
2023-03-17T05:23:05.913Z,8.52
2023-03-17T05:28:03.224Z,8.38
2023-03-17T05:33:00.357Z,8.81
2023-03-17T05:38:00.639Z,8.64
2023-03-17T05:43:04.311Z,8.91
2023-03-17T05:48:11.729Z,8.83
2023-03-17T05:53:10.050Z,9.17
2023-03-17T05:58:07.327Z,9.00
2023-03-17T06:03:05.039Z,9.28
2023-03-17T06:08:01.904Z,10.12
2023-03-17T06:13:00.398Z,10.62
2023-03-17T06:18:00.394Z,10.77
2023-03-17T06:23:05.041Z,11.11
2023-03-17T06:28:08.769Z,11.01
2023-03-17T06:33:08.820Z,10.59
2023-03-17T06:38:09.022Z,10.04
2023-03-17T06:43:06.934Z,10.86
2023-03-17T06:48:04.182Z,10.73
2023-03-17T06:53:01.269Z,11.23
2023-03-17T06:58:07.347Z,12.19
2023-03-17T07:03:05.299Z,12.26
2023-03-17T07:08:02.069Z,12.17
2023-03-17T07:12:59.032Z,12.09
2023-03-17T07:17:56.032Z,11.89
2023-03-17T07:22:53.446Z,11.85
2023-03-17T07:27:51.360Z,11.66
2023-03-17T07:32:48.813Z,12.73
2023-03-17T07:37:45.601Z,13.97
2023-03-17T07:42:43.049Z,15.57
2023-03-17T07:47:40.091Z,17.17
2023-03-17T07:52:37.986Z,17.94
2023-03-17T07:57:34.819Z,18.62
2023-03-17T08:02:36.109Z,18.70
2023-03-17T08:07:38.519Z,17.17
2023-03-17T08:12:35.980Z,17.04
2023-03-17T08:17:36.039Z,16.33
2023-03-17T08:22:36.225Z,16.54
2023-03-17T08:27:34.907Z,15.73
2023-03-17T08:32:31.945Z,15.95
2023-03-17T08:37:37.290Z,15.20
2023-03-17T08:42:34.822Z,13.98
2023-03-17T08:47:35.573Z,12.97
2023-03-17T08:52:41.908Z,12.59
2023-03-17T08:57:39.138Z,12.83
2023-03-17T09:02:37.310Z,12.53
2023-03-17T09:07:37.912Z,12.27
2023-03-17T09:12:35.804Z,11.83
2023-03-17T09:17:32.606Z,11.66
2023-03-17T09:22:29.472Z,11.92
2023-03-17T09:27:27.010Z,12.02
2023-03-17T09:32:23.796Z,12.15
2023-03-17T09:37:20.868Z,12.26
2023-03-17T09:42:34.443Z,12.41
2023-03-17T09:47:57.004Z,12.58
2023-03-17T09:52:56.218Z,12.70
2023-03-17T09:57:56.120Z,12.75
2023-03-17T10:02:53.686Z,12.73
2023-03-17T10:07:59.034Z,12.88
2023-03-17T10:13:05.642Z,12.98
2023-03-17T10:18:08.894Z,13.24
2023-03-17T10:23:10.075Z,13.36
2023-03-17T10:28:22.565Z,14.37
2023-03-17T10:33:20.628Z,14.96
2023-03-17T10:38:19.182Z,15.53
2023-03-17T10:43:21.184Z,16.16
2023-03-17T10:48:20.119Z,16.90
2023-03-17T10:53:21.063Z,17.17
2023-03-17T10:58:22.099Z,17.60
2023-03-17T11:03:24.066Z,17.97
2023-03-17T11:08:22.609Z,18.24
2023-03-17T11:13:20.433Z,18.10
2023-03-17T11:18:21.964Z,17.83
2023-03-17T11:23:32.636Z,17.65
2023-03-17T11:28:35.318Z,17.73
2023-03-17T11:33:48.075Z,17.27
2023-03-17T11:38:56.401Z,16.88
2023-03-17T11:44:07.497Z,16.65
2023-03-17T11:49:11.622Z,16.31
2023-03-17T11:54:13.728Z,15.99
2023-03-17T11:59:25.802Z,16.22
2023-03-17T12:04:30.136Z,16.12
2023-03-17T12:09:32.512Z,15.94
2023-03-17T12:14:36.745Z,15.76
2023-03-17T12:19:41.853Z,15.55
2023-03-17T12:24:43.104Z,15.52
2023-03-17T12:29:46.668Z,15.91
2023-03-17T12:34:50.342Z,15.77
2023-03-17T12:39:55.056Z,15.87
2023-03-17T12:45:14.337Z,15.85
2023-03-17T12:50:39.713Z,15.66
2023-03-17T12:55:37.077Z,15.64
2023-03-17T13:00:50.024Z,15.45
2023-03-17T13:05:53.150Z,15.25
2023-03-17T13:10:50.650Z,15.59
2023-03-17T13:15:58.234Z,15.55
2023-03-17T13:21:12.261Z,15.37
2023-03-17T13:26:16.893Z,15.12
2023-03-17T13:31:36.326Z,14.51
2023-03-17T13:36:47.271Z,14.28
2023-03-17T13:42:15.722Z,14.03
2023-03-17T13:47:31.361Z,13.82
2023-03-17T13:52:32.516Z,13.42
2023-03-17T13:57:43.162Z,13.65
2023-03-17T14:02:43.252Z,14.00
2023-03-17T14:07:50.020Z,13.79
2023-03-17T14:12:55.374Z,13.49
2023-03-17T14:18:10.424Z,13.75
2023-03-17T14:23:09.260Z,13.47
2023-03-17T14:28:11.065Z,13.46
2023-03-17T14:33:21.473Z,13.39
2023-03-17T14:38:21.431Z,13.26
2023-03-17T14:43:18.294Z,12.80
2023-03-17T14:48:21.228Z,12.76
2023-03-17T14:53:19.227Z,12.89
2023-03-17T14:58:23.472Z,12.65
2023-03-17T15:03:25.633Z,12.36
2023-03-17T15:08:40.324Z,12.09
2023-03-17T15:13:38.457Z,11.35
2023-03-17T15:18:38.609Z,11.08
2023-03-17T15:23:45.023Z,11.45
2023-03-17T15:28:43.844Z,11.18
2023-03-17T15:33:43.410Z,10.99
2023-03-17T15:38:40.630Z,10.89
2023-03-17T15:43:37.966Z,11.00
2023-03-17T15:48:36.304Z,10.89
2023-03-17T15:53:34.559Z,10.69
2023-03-17T15:58:34.512Z,10.36
2023-03-17T16:03:34.238Z,10.30
2023-03-17T16:08:34.122Z,9.84
2023-03-17T16:13:34.197Z,10.13
2023-03-17T16:18:34.338Z,10.21
2023-03-17T16:23:35.344Z,10.10
2023-03-17T16:28:34.349Z,10.00
2023-03-17T16:33:35.858Z,9.81
2023-03-17T16:38:34.378Z,9.68
2023-03-17T16:43:37.573Z,9.44
2023-03-17T16:48:40.599Z,9.29
2023-03-17T16:53:37.485Z,9.36
2023-03-17T16:58:39.872Z,9.28
2023-03-17T17:03:37.259Z,9.07
2023-03-17T17:08:34.303Z,9.10
2023-03-17T17:13:37.214Z,9.06
2023-03-17T17:18:41.128Z,9.07
2023-03-17T17:23:38.373Z,9.02
2023-03-17T17:28:39.061Z,9.38
2023-03-17T17:33:37.046Z,9.44
2023-03-17T17:38:34.068Z,9.06
2023-03-17T17:43:32.150Z,8.98
2023-03-17T17:48:30.016Z,9.41
2023-03-17T17:53:29.145Z,9.71
2023-03-17T17:58:26.474Z,9.32
2023-03-17T18:03:24.748Z,9.61
2023-03-17T18:08:27.587Z,9.64
2023-03-17T18:13:27.687Z,9.49
2023-03-17T18:18:34.939Z,9.94
2023-03-17T18:23:38.561Z,9.68
2023-03-17T18:28:36.107Z,9.62
2023-03-17T18:33:33.467Z,9.80
2023-03-17T18:38:31.390Z,9.84
2023-03-17T18:43:29.942Z,9.38
2023-03-17T18:48:29.290Z,10.01
2023-03-17T18:53:26.632Z,10.02
2023-03-17T18:58:23.899Z,9.44
2023-03-17T19:03:33.026Z,9.89
2023-03-17T19:08:30.003Z,9.30
2023-03-17T19:13:27.381Z,10.05
2023-03-17T19:18:26.957Z,10.02
2023-03-17T19:23:24.194Z,9.61
2023-03-17T19:28:21.450Z,9.94
2023-03-17T19:33:23.628Z,9.66
2023-03-17T19:38:22.752Z,9.69
2023-03-17T19:43:36.802Z,9.78
2023-03-17T19:48:40.076Z,9.51
2023-03-17T19:53:39.219Z,9.12
2023-03-17T19:58:36.174Z,9.36
2023-03-17T20:03:34.568Z,9.14
2023-03-17T20:08:31.511Z,8.70
2023-03-17T20:13:28.979Z,9.16
2023-03-17T20:18:26.046Z,8.91
2023-03-17T20:23:24.295Z,9.13
2023-03-17T20:28:21.525Z,8.87
2023-03-17T20:33:19.158Z,8.81
2023-03-17T20:38:16.006Z,9.06
2023-03-17T20:48:27.308Z,9.48
2023-03-17T20:53:24.253Z,9.36
2023-03-17T20:58:22.550Z,9.56
2023-03-17T21:03:19.510Z,9.48
2023-03-17T21:08:17.074Z,9.25
2023-03-17T21:13:17.247Z,9.28
2023-03-17T21:18:14.116Z,9.29
2023-03-17T21:23:13.557Z,9.65
2023-03-17T21:28:13.010Z,9.52
2023-03-17T21:33:11.007Z,9.79
2023-03-17T21:38:10.271Z,9.80
2023-03-17T21:43:09.489Z,9.48
2023-03-17T21:48:07.140Z,9.53
2023-03-17T21:53:04.614Z,9.66
2023-03-17T21:58:02.005Z,9.53
2023-03-17T22:03:01.273Z,9.64
2023-03-17T22:07:59.056Z,9.50
2023-03-17T22:12:58.984Z,9.61
2023-03-17T22:17:57.124Z,9.40
2023-03-17T22:22:53.945Z,9.49
2023-03-17T22:27:53.029Z,9.65
2023-03-17T22:32:50.461Z,9.48
2023-03-17T22:37:47.331Z,9.55
2023-03-17T22:42:44.114Z,9.57
2023-03-17T22:47:41.757Z,9.61
2023-03-17T22:52:38.550Z,9.36
2023-03-17T22:57:35.580Z,9.33
2023-03-17T23:02:32.385Z,9.58
2023-03-17T23:07:44.309Z,9.27
2023-03-17T23:12:47.968Z,9.56
2023-03-17T23:17:45.556Z,9.17
2023-03-17T23:22:43.428Z,9.55
2023-03-17T23:27:40.790Z,9.29
2023-03-17T23:32:37.820Z,9.41
2023-03-17T23:37:34.795Z,9.37
2023-03-17T23:42:33.052Z,8.77
2023-03-17T23:47:29.989Z,8.69
2023-03-17T23:52:27.533Z,8.60
2023-03-17T23:57:24.966Z,8.80
